createdAt,value
2019-05-22T00:00:29.667Z,89.60
2019-05-22T00:03:06.061Z,89.10
2019-05-22T00:05:42.330Z,89.50
2019-05-22T00:08:17.437Z,89.70
2019-05-22T00:10:54.730Z,89.60
2019-05-22T00:13:31.178Z,89.50
2019-05-22T00:16:08.403Z,89.70
2019-05-22T00:18:43.387Z,89.60
2019-05-22T00:21:18.452Z,89.60
2019-05-22T00:23:54.715Z,89.40
2019-05-22T00:26:29.968Z,89.40
2019-05-22T00:29:05.090Z,89.50
2019-05-22T00:31:40.279Z,90.40
2019-05-22T00:34:17.299Z,90.20
2019-05-22T00:36:52.855Z,90.50
2019-05-22T00:39:28.771Z,90.30
2019-05-22T00:42:06.849Z,90.30
2019-05-22T00:44:59.805Z,90.80
2019-05-22T00:47:36.558Z,90.60
2019-05-22T00:50:14.274Z,90.60
2019-05-22T00:52:51.822Z,91.00
2019-05-22T00:55:33.830Z,90.90
2019-05-22T00:58:21.217Z,91.10
2019-05-22T01:01:05.247Z,90.90
2019-05-22T01:03:39.977Z,90.80
2019-05-22T01:06:16.299Z,91.20
2019-05-22T01:08:52.887Z,90.70
2019-05-22T01:11:29.039Z,90.50
2019-05-22T01:14:05.039Z,90.90
2019-05-22T01:16:42.241Z,90.90
2019-05-22T01:19:18.601Z,90.70
2019-05-22T01:21:55.498Z,90.70
2019-05-22T01:24:31.370Z,90.50
2019-05-22T01:27:07.764Z,90.50
2019-05-22T01:29:43.861Z,90.50
2019-05-22T01:32:36.745Z,90.60
2019-05-22T01:35:14.126Z,90.50
2019-05-22T01:37:50.436Z,90.40
2019-05-22T01:40:41.639Z,90.10
2019-05-22T01:43:25.107Z,90.40
2019-05-22T01:46:03.838Z,90.40
2019-05-22T01:48:40.455Z,90.40
2019-05-22T01:51:16.718Z,90.20
2019-05-22T01:53:51.946Z,90.10
2019-05-22T01:56:27.190Z,90.10
2019-05-22T01:59:02.917Z,90.10
2019-05-22T02:01:40.073Z,90.30
2019-05-22T02:04:15.128Z,90.60
2019-05-22T02:06:51.312Z,90.20
2019-05-22T02:09:33.290Z,90.20
2019-05-22T02:12:18.534Z,90.10
2019-05-22T02:14:55.830Z,90.40
2019-05-22T02:17:35.600Z,90.00
2019-05-22T02:20:11.326Z,90.20
2019-05-22T02:22:47.853Z,90.20
2019-05-22T02:25:24.071Z,90.10
2019-05-22T02:27:59.063Z,90.20
2019-05-22T02:30:36.085Z,90.20
2019-05-22T02:33:12.475Z,90.20
2019-05-22T02:35:47.564Z,90.60
2019-05-22T02:38:22.358Z,90.60
2019-05-22T02:40:59.553Z,90.60
2019-05-22T02:43:36.029Z,90.80
2019-05-22T02:46:11.958Z,90.80
2019-05-22T02:48:49.134Z,90.90
2019-05-22T02:51:24.637Z,90.90
2019-05-22T02:54:00.236Z,90.90
2019-05-22T02:56:36.120Z,90.60
2019-05-22T02:59:13.314Z,90.50
2019-05-22T03:01:48.126Z,90.50
2019-05-22T03:04:24.553Z,90.70
2019-05-22T03:06:59.686Z,90.60
2019-05-22T03:09:35.572Z,90.60
2019-05-22T03:12:12.164Z,90.80
2019-05-22T03:14:48.942Z,90.70
2019-05-22T03:17:30.836Z,90.80
2019-05-22T03:20:13.287Z,90.90
2019-05-22T03:23:09.739Z,90.70
2019-05-22T03:25:45.818Z,91.00
2019-05-22T03:28:21.142Z,90.80
2019-05-22T03:30:55.929Z,90.80
2019-05-22T03:33:30.895Z,90.80
2019-05-22T03:36:12.634Z,90.70
2019-05-22T03:38:48.761Z,90.60
2019-05-22T03:41:24.248Z,90.90
2019-05-22T03:43:59.374Z,91.00
2019-05-22T03:46:37.241Z,91.20
2019-05-22T03:49:28.167Z,91.50
2019-05-22T03:51:52.579Z,91.70
2019-05-22T03:54:27.187Z,91.80
2019-05-22T03:57:02.112Z,91.80
2019-05-22T03:59:38.489Z,92.00
2019-05-22T04:02:14.455Z,91.90
2019-05-22T04:04:49.503Z,92.20
2019-05-22T04:07:26.464Z,92.30
2019-05-22T04:10:01.414Z,92.30
2019-05-22T04:12:36.791Z,92.30
2019-05-22T04:15:12.576Z,92.10
2019-05-22T04:17:47.225Z,92.20
2019-05-22T04:20:22.579Z,92.20
2019-05-22T04:22:59.414Z,92.10
2019-05-22T04:25:34.674Z,91.90
2019-05-22T04:28:10.370Z,92.10
2019-05-22T04:30:46.435Z,92.00
2019-05-22T04:33:21.219Z,91.90
2019-05-22T04:35:56.787Z,92.10
2019-05-22T04:38:32.378Z,91.60
2019-05-22T04:41:09.125Z,91.60
2019-05-22T04:43:44.403Z,91.70
2019-05-22T04:46:20.096Z,91.70
2019-05-22T04:48:56.054Z,91.60
2019-05-22T04:51:31.123Z,91.60
2019-05-22T04:54:06.274Z,91.50
2019-05-22T04:56:40.962Z,91.60
2019-05-22T04:59:35.094Z,91.60
2019-05-22T05:02:10.314Z,91.60
2019-05-22T05:04:45.114Z,91.40
2019-05-22T05:07:20.098Z,91.40
2019-05-22T05:09:55.015Z,91.50
2019-05-22T05:12:29.840Z,91.80
2019-05-22T05:15:06.794Z,91.70
2019-05-22T05:17:41.880Z,91.80
2019-05-22T05:20:22.632Z,91.50
2019-05-22T05:22:53.653Z,91.40
2019-05-22T05:25:29.397Z,91.30
2019-05-22T05:28:07.157Z,91.40
2019-05-22T05:30:42.198Z,91.00
2019-05-22T05:33:17.375Z,90.90
2019-05-22T05:35:54.107Z,90.80
2019-05-22T05:38:38.343Z,91.00
2019-05-22T05:41:13.171Z,91.20
2019-05-22T05:43:48.734Z,91.10
2019-05-22T05:46:24.194Z,91.00
2019-05-22T05:48:59.724Z,90.90
2019-05-22T05:51:37.255Z,90.80
2019-05-22T05:54:12.813Z,90.70
2019-05-22T05:56:48.625Z,90.60
2019-05-22T05:59:26.178Z,90.90
2019-05-22T06:02:01.634Z,91.10
2019-05-22T06:04:37.958Z,91.70
2019-05-22T06:07:19.252Z,92.20
2019-05-22T06:09:57.289Z,92.60
2019-05-22T06:12:32.185Z,93.10
2019-05-22T06:15:07.931Z,93.20
2019-05-22T06:17:47.281Z,93.30
2019-05-22T06:20:26.324Z,93.80
2019-05-22T06:23:04.084Z,94.30
2019-05-22T06:25:39.171Z,94.70
2019-05-22T06:28:14.365Z,94.50
2019-05-22T06:30:49.411Z,95.10
2019-05-22T06:33:29.715Z,95.30
2019-05-22T06:36:08.787Z,95.40
2019-05-22T06:38:49.865Z,95.40
2019-05-22T06:41:28.747Z,95.70
2019-05-22T06:44:31.126Z,95.80
2019-05-22T06:47:08.285Z,96.10
2019-05-22T06:49:45.143Z,96.50
2019-05-22T06:52:19.907Z,96.50
2019-05-22T06:54:54.898Z,96.50
2019-05-22T06:57:30.933Z,96.10
2019-05-22T07:00:13.897Z,96.00
2019-05-22T07:02:45.607Z,95.80
2019-05-22T07:05:20.701Z,96.50
2019-05-22T07:07:55.760Z,95.70
2019-05-22T07:10:31.818Z,95.80
2019-05-22T07:13:08.574Z,95.60
2019-05-22T07:15:44.217Z,95.20
2019-05-22T07:18:19.943Z,95.50
2019-05-22T07:20:54.891Z,95.50
2019-05-22T07:23:31.683Z,96.00
2019-05-22T07:26:08.451Z,96.10
2019-05-22T07:28:43.898Z,96.00
2019-05-22T07:31:18.619Z,95.60
2019-05-22T07:33:54.194Z,95.30
2019-05-22T07:36:30.885Z,95.00
2019-05-22T07:39:10.059Z,95.30
2019-05-22T07:41:45.322Z,94.20
2019-05-22T07:44:20.068Z,94.30
2019-05-22T07:46:55.158Z,94.20
2019-05-22T07:49:30.390Z,94.30
2019-05-22T07:52:07.645Z,93.30
2019-05-22T07:54:43.484Z,93.30
2019-05-22T07:57:21.316Z,94.10
2019-05-22T07:59:56.062Z,93.90
2019-05-22T08:02:36.528Z,93.80
2019-05-22T08:05:12.883Z,93.00
2019-05-22T08:07:50.353Z,93.30
2019-05-22T08:10:25.767Z,93.60
2019-05-22T08:13:01.121Z,94.40
2019-05-22T08:15:36.082Z,93.90
2019-05-22T08:18:11.429Z,93.30
2019-05-22T08:20:47.822Z,93.10
2019-05-22T08:23:23.185Z,93.00
2019-05-22T08:25:59.586Z,93.10
2019-05-22T08:28:34.880Z,93.80
2019-05-22T08:31:11.092Z,94.10
2019-05-22T08:33:46.260Z,94.40
2019-05-22T08:36:21.021Z,94.40
2019-05-22T08:38:55.818Z,94.40
2019-05-22T08:41:37.096Z,94.20
2019-05-22T08:44:16.620Z,94.10
2019-05-22T08:46:48.922Z,94.00
2019-05-22T08:49:23.965Z,93.70
2019-05-22T08:51:59.740Z,93.00
2019-05-22T08:54:35.577Z,93.40
2019-05-22T08:57:10.715Z,93.30
2019-05-22T08:59:45.570Z,93.90
2019-05-22T09:02:20.354Z,93.30
2019-05-22T09:04:55.622Z,92.70
2019-05-22T09:07:30.825Z,92.70
2019-05-22T09:10:06.521Z,92.50
2019-05-22T09:12:42.147Z,92.80
2019-05-22T09:15:17.239Z,93.00
2019-05-22T09:17:52.225Z,93.00
2019-05-22T09:20:27.212Z,93.10
2019-05-22T09:23:03.700Z,93.10
2019-05-22T09:25:38.959Z,93.40
2019-05-22T09:28:13.912Z,93.00
2019-05-22T09:30:49.262Z,93.00
2019-05-22T09:33:24.017Z,93.30
2019-05-22T09:35:58.805Z,93.20
2019-05-22T09:38:33.735Z,93.20
2019-05-22T09:41:09.117Z,93.30
2019-05-22T09:43:43.965Z,92.90
2019-05-22T09:46:19.391Z,92.70
2019-05-22T09:48:54.216Z,93.40
2019-05-22T09:51:29.010Z,93.50
2019-05-22T09:54:04.237Z,94.10
2019-05-22T09:56:39.665Z,94.00
2019-05-22T09:59:14.416Z,94.00
2019-05-22T10:01:49.426Z,94.40
2019-05-22T10:04:27.336Z,93.80
2019-05-22T10:07:02.036Z,94.10
2019-05-22T10:09:42.324Z,94.70
2019-05-22T10:12:17.608Z,94.20
2019-05-22T10:14:57.046Z,94.20
2019-05-22T10:17:32.122Z,94.30
2019-05-22T10:20:09.924Z,94.60
2019-05-22T10:22:44.634Z,94.40
2019-05-22T10:25:19.804Z,94.80
2019-05-22T10:27:58.766Z,95.00
2019-05-22T10:30:31.357Z,95.00
2019-05-22T10:33:07.047Z,94.30
2019-05-22T10:35:42.090Z,94.70
2019-05-22T10:38:17.371Z,94.80
2019-05-22T10:40:52.246Z,94.50
2019-05-22T10:43:27.442Z,94.40
2019-05-22T10:46:02.312Z,95.00
2019-05-22T10:48:40.199Z,94.40
2019-05-22T10:51:13.718Z,95.30
2019-05-22T10:53:49.107Z,95.30
2019-05-22T10:56:24.534Z,95.20
2019-05-22T10:59:01.678Z,95.30
2019-05-22T11:01:37.744Z,94.90
2019-05-22T11:04:13.024Z,94.90
2019-05-22T11:06:47.837Z,95.10
2019-05-22T11:09:23.683Z,95.60
2019-05-22T11:11:58.723Z,95.50
2019-05-22T11:14:34.191Z,95.00
2019-05-22T11:17:10.233Z,95.80
2019-05-22T11:19:45.490Z,95.00
2019-05-22T11:22:20.417Z,95.30
2019-05-22T11:24:55.215Z,95.10
2019-05-22T11:27:30.164Z,95.40
2019-05-22T11:30:06.760Z,95.40
2019-05-22T11:32:42.094Z,94.80
2019-05-22T11:35:18.918Z,95.00
2019-05-22T11:37:54.074Z,94.80
2019-05-22T11:40:29.136Z,94.90
2019-05-22T11:43:05.231Z,95.10
2019-05-22T11:45:40.152Z,95.60
2019-05-22T11:48:14.905Z,95.40
2019-05-22T11:50:51.470Z,95.80
2019-05-22T11:53:27.973Z,95.80
2019-05-22T11:56:02.971Z,95.40
2019-05-22T11:58:38.139Z,95.20
2019-05-22T12:01:13.445Z,95.40
2019-05-22T12:03:52.605Z,95.70
2019-05-22T12:06:30.638Z,95.90
2019-05-22T12:09:07.730Z,95.70
2019-05-22T12:11:45.039Z,95.80
2019-05-22T12:14:19.088Z,95.40
2019-05-22T12:16:55.032Z,95.90
2019-05-22T12:19:29.942Z,96.00
2019-05-22T12:22:04.967Z,96.10
2019-05-22T12:24:39.883Z,95.90
2019-05-22T12:27:15.149Z,95.30
2019-05-22T12:29:51.010Z,95.50
2019-05-22T12:32:28.017Z,95.50
2019-05-22T12:35:02.871Z,95.40
2019-05-22T12:37:37.947Z,95.40
2019-05-22T12:40:16.255Z,95.60
2019-05-22T12:42:52.918Z,95.60
2019-05-22T12:45:29.770Z,95.90
2019-05-22T12:48:06.043Z,95.60
2019-05-22T12:50:40.803Z,95.60
2019-05-22T12:53:17.544Z,95.80
2019-05-22T12:55:53.874Z,96.10
2019-05-22T12:58:29.114Z,96.10
2019-05-22T13:01:04.572Z,96.30
2019-05-22T13:03:40.197Z,96.10
2019-05-22T13:06:15.726Z,96.00
2019-05-22T13:08:51.301Z,95.90
2019-05-22T13:11:26.560Z,95.90
2019-05-22T13:14:01.612Z,95.90
2019-05-22T13:16:37.644Z,96.10
2019-05-22T13:19:14.391Z,96.20
2019-05-22T13:21:52.299Z,96.60
2019-05-22T13:24:28.636Z,96.20
2019-05-22T13:27:06.480Z,95.80
2019-05-22T13:29:41.566Z,96.20
2019-05-22T13:32:17.892Z,95.90
2019-05-22T13:34:54.058Z,95.90
2019-05-22T13:37:28.935Z,96.50
2019-05-22T13:40:06.167Z,96.20
2019-05-22T13:42:41.782Z,96.40
2019-05-22T13:45:28.681Z,96.60
2019-05-22T13:47:54.148Z,96.70
2019-05-22T13:50:30.003Z,96.20
2019-05-22T13:53:06.439Z,96.20
2019-05-22T13:55:41.281Z,96.30
2019-05-22T13:58:20.061Z,96.40
2019-05-22T14:00:54.846Z,96.30
2019-05-22T14:03:30.377Z,96.40
2019-05-22T14:06:05.851Z,96.60
2019-05-22T14:08:40.602Z,96.30
2019-05-22T14:11:16.173Z,96.10
2019-05-22T14:13:57.734Z,96.50
2019-05-22T14:16:47.559Z,96.50
2019-05-22T14:19:09.695Z,96.70
2019-05-22T14:21:51.342Z,96.70
2019-05-22T14:24:20.954Z,96.60
2019-05-22T14:26:55.750Z,96.50
2019-05-22T14:29:30.800Z,96.60
2019-05-22T14:32:07.627Z,97.00
2019-05-22T14:34:42.445Z,97.00
2019-05-22T14:37:18.004Z,96.80
2019-05-22T14:39:52.776Z,96.70
2019-05-22T14:42:27.547Z,96.80
2019-05-22T14:45:02.401Z,96.80
2019-05-22T14:47:37.487Z,97.00
2019-05-22T14:50:13.067Z,97.10
2019-05-22T14:52:48.043Z,97.30
2019-05-22T14:55:32.225Z,97.10
2019-05-22T14:58:08.138Z,96.80
2019-05-22T15:00:43.385Z,96.20
2019-05-22T15:03:19.143Z,96.30
2019-05-22T15:05:55.075Z,96.40
2019-05-22T15:08:30.093Z,96.40
2019-05-22T15:11:06.664Z,96.50
2019-05-22T15:13:43.102Z,96.80
2019-05-22T15:16:18.076Z,96.80
2019-05-22T15:18:53.034Z,97.20
2019-05-22T15:21:30.020Z,96.80
2019-05-22T15:24:06.503Z,96.90
2019-05-22T15:26:41.733Z,97.00
2019-05-22T15:29:16.923Z,97.30
2019-05-22T15:31:52.373Z,97.10
2019-05-22T15:34:28.412Z,97.20
2019-05-22T15:37:04.728Z,97.20
2019-05-22T15:39:40.992Z,97.40
2019-05-22T15:42:42.972Z,97.40
2019-05-22T15:45:22.002Z,97.30
2019-05-22T15:48:00.443Z,97.20
2019-05-22T15:50:37.245Z,97.40
2019-05-22T15:53:15.163Z,97.40
2019-05-22T15:55:50.914Z,97.60
2019-05-22T15:58:27.562Z,97.30
2019-05-22T16:01:06.822Z,97.30
2019-05-22T16:03:42.448Z,97.20
2019-05-22T16:06:18.473Z,97.30
2019-05-22T16:08:54.782Z,97.40
2019-05-22T16:11:31.519Z,97.30
2019-05-22T16:14:07.698Z,97.30
2019-05-22T16:16:45.176Z,97.50
2019-05-22T16:19:21.387Z,97.30
2019-05-22T16:22:01.497Z,97.10
2019-05-22T16:24:37.511Z,96.90
2019-05-22T16:27:14.283Z,97.40
2019-05-22T16:29:49.039Z,97.00
2019-05-22T16:32:28.978Z,97.30
2019-05-22T16:35:05.603Z,96.80
2019-05-22T16:37:42.020Z,96.80
2019-05-22T16:40:16.881Z,97.10
2019-05-22T16:42:51.934Z,97.00
2019-05-22T16:45:28.114Z,97.20
2019-05-22T16:48:03.678Z,97.30
2019-05-22T16:50:39.919Z,97.30
2019-05-22T16:53:14.734Z,97.20
2019-05-22T16:55:49.762Z,97.20
2019-05-22T16:58:25.434Z,97.30
2019-05-22T17:01:00.182Z,97.50
2019-05-22T17:03:35.139Z,97.50
2019-05-22T17:06:10.970Z,97.60
2019-05-22T17:08:45.763Z,97.60
2019-05-22T17:11:22.604Z,97.40
2019-05-22T17:14:01.505Z,97.40
2019-05-22T17:16:39.773Z,97.40
2019-05-22T17:19:26.270Z,97.50
2019-05-22T17:21:52.572Z,97.50
2019-05-22T17:24:29.431Z,97.60
2019-05-22T17:27:07.640Z,97.30
2019-05-22T17:29:44.126Z,97.30
2019-05-22T17:32:19.441Z,97.30
2019-05-22T17:34:54.238Z,97.50
2019-05-22T17:37:29.762Z,97.40
2019-05-22T17:40:08.994Z,97.40
2019-05-22T17:42:45.823Z,97.30
2019-05-22T17:45:23.542Z,97.60
2019-05-22T17:47:58.662Z,97.40
2019-05-22T17:50:34.538Z,97.40
2019-05-22T17:53:09.514Z,97.50
2019-05-22T17:55:46.849Z,97.50
2019-05-22T17:58:25.740Z,97.50
2019-05-22T18:00:58.863Z,97.20
2019-05-22T18:03:33.663Z,97.20
2019-05-22T18:06:09.634Z,97.00
2019-05-22T18:08:47.256Z,96.30
2019-05-22T18:11:22.191Z,96.60
2019-05-22T18:14:01.881Z,97.10
2019-05-22T18:16:37.129Z,97.30
2019-05-22T18:19:12.763Z,97.30
2019-05-22T18:21:48.144Z,97.00
2019-05-22T18:24:23.774Z,96.80
2019-05-22T18:26:58.499Z,97.00
2019-05-22T18:29:33.409Z,96.80
2019-05-22T18:32:10.631Z,97.00
2019-05-22T18:34:48.935Z,97.10
2019-05-22T18:37:23.726Z,97.20
2019-05-22T18:39:58.516Z,97.20
2019-05-22T18:42:33.344Z,97.10
2019-05-22T18:45:08.517Z,97.50
2019-05-22T18:47:43.663Z,97.40
2019-05-22T18:50:18.812Z,97.70
2019-05-22T18:52:53.771Z,98.00
2019-05-22T18:55:28.493Z,97.60
2019-05-22T18:58:03.419Z,97.70
2019-05-22T19:00:38.453Z,97.40
2019-05-22T19:03:13.723Z,97.40
2019-05-22T19:05:48.607Z,97.20
2019-05-22T19:08:26.090Z,97.10
2019-05-22T19:11:00.838Z,96.90
2019-05-22T19:13:35.729Z,96.90
2019-05-22T19:16:10.951Z,96.90
2019-05-22T19:18:46.223Z,96.70
2019-05-22T19:21:20.923Z,96.50
2019-05-22T19:23:55.642Z,96.50
2019-05-22T19:26:30.384Z,96.30
2019-05-22T19:29:05.476Z,96.30
2019-05-22T19:31:40.233Z,96.10
2019-05-22T19:34:16.527Z,95.90
2019-05-22T19:36:51.449Z,95.80
2019-05-22T19:39:27.187Z,95.60
2019-05-22T19:42:05.719Z,95.80
2019-05-22T19:44:40.750Z,95.70
2019-05-22T19:47:15.578Z,95.50
2019-05-22T19:49:50.318Z,95.70
2019-05-22T19:52:38.988Z,95.60
2019-05-22T19:55:06.953Z,95.70
2019-05-22T19:57:39.690Z,95.70
2019-05-22T20:00:15.757Z,96.00
2019-05-22T20:02:51.024Z,96.10
2019-05-22T20:05:26.601Z,96.20
2019-05-22T20:08:01.356Z,96.20
2019-05-22T20:10:36.249Z,96.60
2019-05-22T20:13:12.865Z,96.50
2019-05-22T20:15:48.203Z,96.40
2019-05-22T20:18:23.714Z,96.20
2019-05-22T20:20:58.578Z,96.00
2019-05-22T20:23:36.522Z,96.00
2019-05-22T20:26:10.266Z,96.00
2019-05-22T20:28:45.119Z,96.00
2019-05-22T20:31:20.538Z,95.90
2019-05-22T20:33:55.391Z,95.70
2019-05-22T20:36:30.146Z,95.60
2019-05-22T20:39:08.782Z,95.40
2019-05-22T20:41:43.730Z,95.30
2019-05-22T20:44:19.481Z,95.10
2019-05-22T20:46:55.616Z,95.10
2019-05-22T20:49:31.903Z,95.10
2019-05-22T20:52:10.978Z,95.00
2019-05-22T20:54:47.039Z,95.00
2019-05-22T20:57:22.816Z,94.90
2019-05-22T20:59:59.341Z,94.90
2019-05-22T21:02:36.074Z,95.10
2019-05-22T21:05:13.095Z,94.90
2019-05-22T21:07:51.129Z,94.70
2019-05-22T21:10:27.157Z,94.90
2019-05-22T21:13:03.200Z,95.00
2019-05-22T21:15:38.664Z,94.90
2019-05-22T21:18:14.410Z,95.00
2019-05-22T21:20:54.798Z,94.80
2019-05-22T21:23:28.623Z,94.70
2019-05-22T21:26:03.903Z,94.60
2019-05-22T21:28:39.419Z,94.70
2019-05-22T21:31:16.229Z,94.80
2019-05-22T21:33:52.056Z,94.80
2019-05-22T21:36:27.850Z,94.60
2019-05-22T21:39:04.311Z,94.80
2019-05-22T21:41:39.048Z,94.80
2019-05-22T21:44:13.946Z,94.60
2019-05-22T21:46:48.669Z,94.60
2019-05-22T21:49:24.325Z,94.50
2019-05-22T21:52:00.458Z,94.70
2019-05-22T21:54:35.870Z,94.70
2019-05-22T21:57:11.644Z,94.60
2019-05-22T21:59:49.509Z,94.70
2019-05-22T22:02:28.834Z,94.70
2019-05-22T22:05:05.994Z,94.80
2019-05-22T22:07:42.039Z,94.80
2019-05-22T22:10:17.118Z,94.80
2019-05-22T22:12:53.702Z,94.70
2019-05-22T22:15:29.024Z,94.60
2019-05-22T22:18:04.420Z,94.80
2019-05-22T22:20:39.838Z,94.70
2019-05-22T22:23:16.372Z,94.60
2019-05-22T22:25:51.421Z,94.60
2019-05-22T22:28:26.475Z,94.50
2019-05-22T22:31:10.238Z,94.40
2019-05-22T22:33:47.951Z,94.40
2019-05-22T22:36:22.787Z,94.60
2019-05-22T22:38:58.718Z,94.60
2019-05-22T22:41:33.432Z,94.70
2019-05-22T22:44:10.161Z,94.70
2019-05-22T22:46:59.402Z,94.70
2019-05-22T22:49:35.149Z,94.70
2019-05-22T22:52:14.073Z,94.50
2019-05-22T22:54:48.761Z,94.50
2019-05-22T22:57:23.491Z,94.50
2019-05-22T22:59:58.748Z,94.40
2019-05-22T23:02:35.502Z,94.40
2019-05-22T23:05:12.031Z,94.40
2019-05-22T23:07:48.719Z,94.50
2019-05-22T23:10:23.847Z,94.50
2019-05-22T23:12:58.840Z,94.40
2019-05-22T23:15:35.694Z,94.30
2019-05-22T23:18:10.807Z,94.30
2019-05-22T23:20:45.590Z,94.30
2019-05-22T23:23:19.571Z,94.50
2019-05-22T23:25:54.351Z,94.20
2019-05-22T23:28:34.553Z,94.20
2019-05-22T23:31:07.042Z,94.30
2019-05-22T23:33:43.287Z,94.10
2019-05-22T23:36:18.488Z,94.20
2019-05-22T23:38:54.347Z,94.10
2019-05-22T23:41:32.524Z,94.20
2019-05-22T23:44:09.395Z,94.10
2019-05-22T23:46:44.479Z,94.20
2019-05-22T23:49:19.342Z,94.00
2019-05-22T23:51:54.507Z,94.10
2019-05-22T23:54:30.162Z,94.30
2019-05-22T23:57:05.191Z,94.40
2019-05-22T23:59:42.181Z,94.40
